createdAt,value
2019-03-23T00:00:56.574Z,20.87
2019-03-23T00:03:57.031Z,19.53
2019-03-23T00:06:57.541Z,21.00
2019-03-23T00:09:58.851Z,20.07
2019-03-23T00:12:59.291Z,19.67
2019-03-23T00:15:59.572Z,20.67
2019-03-23T00:19:00.703Z,19.97
2019-03-23T00:22:01.229Z,18.63
2019-03-23T00:25:02.051Z,19.80
2019-03-23T00:28:02.549Z,19.00
2019-03-23T00:31:03.138Z,18.40
2019-03-23T00:34:04.069Z,17.97
2019-03-23T00:37:04.649Z,20.07
2019-03-23T00:40:05.410Z,18.80
2019-03-23T00:43:05.766Z,19.00
2019-03-23T00:46:06.636Z,18.33
2019-03-23T00:49:07.611Z,18.27
2019-03-23T00:52:08.358Z,18.73
2019-03-23T00:55:08.762Z,18.90
2019-03-23T00:58:09.247Z,20.33
2019-03-23T01:01:09.598Z,18.40
2019-03-23T01:04:10.396Z,19.43
2019-03-23T01:07:11.180Z,17.83
2019-03-23T01:10:11.726Z,16.97
2019-03-23T01:13:12.333Z,17.97
2019-03-23T01:16:13.426Z,17.27
2019-03-23T01:19:14.265Z,17.20
2019-03-23T01:22:14.590Z,17.17
2019-03-23T01:25:15.054Z,17.87
2019-03-23T01:28:15.466Z,16.93
2019-03-23T01:31:16.237Z,17.07
2019-03-23T01:34:16.970Z,17.17
2019-03-23T01:37:17.241Z,16.73
2019-03-23T01:40:17.673Z,16.83
2019-03-23T01:43:18.090Z,16.00
2019-03-23T01:46:19.139Z,16.87
2019-03-23T01:49:20.335Z,19.97
2019-03-23T01:52:20.795Z,17.50
2019-03-23T01:55:21.652Z,17.80
2019-03-23T01:58:22.810Z,17.40
2019-03-23T02:01:23.145Z,17.40
2019-03-23T02:04:23.832Z,17.97
2019-03-23T02:07:24.410Z,18.17
2019-03-23T02:10:25.572Z,18.73
2019-03-23T02:13:26.169Z,17.23
2019-03-23T02:16:26.597Z,17.83
2019-03-23T02:19:26.975Z,16.80
2019-03-23T02:22:27.522Z,16.30
2019-03-23T02:25:27.882Z,16.53
2019-03-23T02:28:28.264Z,17.27
2019-03-23T02:31:29.427Z,15.13
2019-03-23T02:34:30.599Z,15.17
2019-03-23T02:37:31.003Z,15.00
2019-03-23T02:40:31.720Z,16.37
2019-03-23T02:43:32.460Z,17.27
2019-03-23T02:46:32.997Z,17.73
2019-03-23T02:49:33.334Z,17.40
2019-03-23T02:52:33.885Z,16.83
2019-03-23T02:55:34.216Z,17.90
2019-03-23T02:58:34.538Z,16.37
2019-03-23T03:01:35.147Z,16.07
2019-03-23T03:04:35.611Z,17.67
2019-03-23T03:07:42.630Z,17.23
2019-03-23T03:10:38.675Z,18.47
2019-03-23T03:13:39.257Z,18.63
2019-03-23T03:16:40.127Z,17.13
2019-03-23T03:19:40.455Z,15.80
2019-03-23T03:22:40.819Z,16.33
2019-03-23T03:25:41.497Z,15.90
2019-03-23T03:28:42.025Z,16.43
2019-03-23T03:31:42.423Z,17.37
2019-03-23T03:34:43.580Z,16.77
2019-03-23T03:37:55.820Z,17.30
2019-03-23T03:40:53.555Z,17.50
2019-03-23T03:43:54.196Z,16.90
2019-03-23T03:46:54.603Z,16.27
2019-03-23T03:49:55.772Z,16.17
2019-03-23T03:52:56.145Z,15.43
2019-03-23T03:55:56.680Z,14.87
2019-03-23T03:58:57.875Z,16.00
2019-03-23T04:01:58.618Z,14.43
2019-03-23T04:04:59.073Z,14.87
2019-03-23T04:08:10.453Z,14.63
2019-03-23T04:11:02.105Z,15.23
2019-03-23T04:14:02.625Z,14.97
2019-03-23T04:17:03.537Z,15.10
2019-03-23T04:20:04.075Z,14.43
2019-03-23T04:23:04.658Z,15.60
2019-03-23T04:26:05.220Z,14.03
2019-03-23T04:29:05.566Z,13.90
2019-03-23T04:32:06.154Z,13.50
2019-03-23T04:35:06.588Z,13.83
2019-03-23T04:38:07.018Z,15.67
2019-03-23T04:41:08.057Z,15.90
2019-03-23T04:44:08.769Z,15.73
2019-03-23T04:47:09.227Z,14.43
2019-03-23T04:50:09.598Z,17.27
2019-03-23T04:53:10.661Z,17.93
2019-03-23T04:56:11.129Z,15.67
2019-03-23T04:59:11.389Z,16.70
2019-03-23T05:02:12.068Z,14.67
2019-03-23T05:05:12.580Z,14.20
2019-03-23T05:08:13.429Z,13.47
2019-03-23T05:11:14.078Z,15.13
2019-03-23T05:14:14.920Z,16.73
2019-03-23T05:17:15.230Z,16.07
2019-03-23T05:20:15.540Z,15.53
2019-03-23T05:23:16.041Z,14.83
2019-03-23T05:26:16.767Z,14.43
2019-03-23T05:29:17.303Z,14.40
2019-03-23T05:32:17.922Z,14.07
2019-03-23T05:35:19.001Z,14.27
2019-03-23T05:38:19.731Z,19.80
2019-03-23T05:41:20.401Z,23.40
2019-03-23T05:44:20.678Z,15.33
2019-03-23T05:47:21.042Z,16.77
2019-03-23T05:50:21.498Z,15.73
2019-03-23T05:53:22.660Z,16.27
2019-03-23T05:56:23.094Z,17.40
2019-03-23T05:59:23.476Z,16.47
2019-03-23T06:02:23.799Z,17.57
2019-03-23T06:05:24.756Z,22.10
2019-03-23T06:08:25.917Z,84.63
2019-03-23T06:11:27.106Z,19.93
2019-03-23T06:14:27.482Z,18.57
2019-03-23T06:17:27.790Z,18.27
2019-03-23T06:20:28.353Z,17.17
2019-03-23T06:23:28.578Z,17.60
2019-03-23T06:26:29.145Z,16.77
2019-03-23T06:29:29.617Z,18.57
2019-03-23T06:32:30.067Z,18.17
2019-03-23T06:35:30.359Z,19.37
2019-03-23T06:38:30.714Z,19.77
2019-03-23T06:41:31.393Z,19.93
2019-03-23T06:44:31.930Z,19.70
2019-03-23T06:47:33.074Z,18.57
2019-03-23T06:50:34.484Z,18.53
2019-03-23T06:53:34.911Z,18.47
2019-03-23T06:56:35.317Z,18.27
2019-03-23T06:59:36.378Z,18.87
2019-03-23T07:02:37.038Z,17.80
2019-03-23T07:05:37.789Z,23.70
2019-03-23T07:08:38.318Z,17.67
2019-03-23T07:11:38.709Z,18.23
2019-03-23T07:14:39.355Z,19.30
2019-03-23T07:17:40.046Z,20.60
2019-03-23T07:20:40.485Z,20.33
2019-03-23T07:23:41.280Z,22.17
2019-03-23T07:26:41.746Z,21.63
2019-03-23T07:29:42.270Z,21.13
2019-03-23T07:32:42.602Z,20.77
2019-03-23T07:35:43.018Z,21.17
2019-03-23T07:38:43.401Z,21.00
2019-03-23T07:41:43.887Z,20.70
2019-03-23T07:44:44.205Z,20.40
2019-03-23T07:47:44.564Z,20.47
2019-03-23T07:50:44.975Z,19.00
2019-03-23T07:53:45.950Z,18.07
2019-03-23T07:56:46.452Z,19.13
2019-03-23T07:59:47.710Z,19.73
2019-03-23T08:02:47.977Z,20.33
2019-03-23T08:05:48.730Z,20.00
2019-03-23T08:08:49.259Z,18.00
2019-03-23T08:11:49.798Z,18.53
2019-03-23T08:14:50.308Z,17.67
2019-03-23T08:17:51.087Z,18.03
2019-03-23T08:20:51.622Z,17.83
2019-03-23T08:23:52.295Z,19.00
2019-03-23T08:26:53.053Z,19.63
2019-03-23T08:29:54.346Z,19.97
2019-03-23T08:32:54.622Z,20.03
2019-03-23T08:35:55.911Z,20.82
2019-03-23T08:38:57.493Z,20.57
2019-03-23T08:41:58.785Z,21.65
2019-03-23T08:45:00.205Z,20.75
2019-03-23T08:48:01.719Z,20.77
2019-03-23T08:51:02.734Z,20.20
2019-03-23T08:54:04.224Z,21.00
2019-03-23T08:57:05.367Z,19.75
2019-03-23T09:00:06.933Z,19.55
2019-03-23T09:03:08.635Z,18.48
2019-03-23T09:06:10.186Z,18.50
2019-03-23T09:09:11.508Z,20.65
2019-03-23T09:12:13.106Z,20.95
2019-03-23T09:15:14.631Z,20.30
2019-03-23T09:18:15.640Z,21.45
2019-03-23T09:21:17.411Z,21.65
2019-03-23T09:24:18.730Z,21.40
2019-03-23T09:27:20.447Z,21.23
2019-03-23T09:30:21.946Z,18.77
2019-03-23T09:33:22.972Z,20.75
2019-03-23T09:36:24.459Z,21.23
2019-03-23T09:39:25.496Z,20.88
2019-03-23T09:42:26.881Z,21.75
2019-03-23T09:45:28.629Z,22.05
2019-03-23T09:48:29.763Z,19.82
2019-03-23T09:51:31.496Z,19.55
2019-03-23T09:54:32.968Z,20.27
2019-03-23T09:57:34.588Z,21.20
2019-03-23T10:00:35.931Z,21.02
2019-03-23T10:03:37.487Z,21.73
2019-03-23T10:06:38.686Z,18.77
2019-03-23T10:09:40.242Z,21.70
2019-03-23T10:12:41.842Z,19.20
2019-03-23T10:15:43.351Z,20.15
2019-03-23T10:18:44.992Z,19.20
2019-03-23T10:21:46.419Z,20.67
2019-03-23T10:24:48.067Z,21.53
2019-03-23T10:27:48.917Z,21.33
2019-03-23T10:30:50.565Z,28.53
2019-03-23T10:33:55.450Z,21.67
2019-03-23T10:36:56.288Z,20.57
2019-03-23T10:39:57.151Z,22.53
2019-03-23T10:42:58.453Z,23.10
2019-03-23T10:45:59.854Z,20.97
2019-03-23T10:49:00.586Z,20.50
2019-03-23T10:52:02.040Z,20.27
2019-03-23T10:55:03.059Z,19.90
2019-03-23T10:58:04.393Z,20.90
2019-03-23T11:01:05.268Z,20.87
2019-03-23T11:04:05.962Z,21.03
2019-03-23T11:07:07.413Z,20.67
2019-03-23T11:10:08.970Z,19.10
2019-03-23T11:13:09.564Z,21.03
2019-03-23T11:16:10.934Z,20.60
2019-03-23T11:19:13.502Z,19.50
2019-03-23T11:22:14.797Z,20.30
2019-03-23T11:25:16.179Z,20.77
2019-03-23T11:28:17.616Z,19.70
2019-03-23T11:31:19.103Z,20.40
2019-03-23T11:34:17.258Z,19.40
2019-03-23T11:37:17.991Z,19.30
2019-03-23T11:40:18.765Z,19.57
2019-03-23T11:44:54.376Z,21.73
2019-03-23T11:47:55.798Z,20.97
2019-03-23T11:50:56.841Z,18.83
2019-03-23T11:53:57.713Z,19.23
2019-03-23T11:56:58.837Z,19.63
2019-03-23T11:59:59.382Z,18.77
2019-03-23T12:03:01.298Z,20.33
2019-03-23T12:06:02.062Z,18.10
2019-03-23T12:09:04.591Z,17.13
2019-03-23T12:12:05.330Z,18.43
2019-03-23T12:15:06.393Z,17.40
2019-03-23T12:18:07.969Z,16.97
2019-03-23T12:21:08.806Z,16.40
2019-03-23T12:24:09.687Z,17.27
2019-03-23T12:27:10.522Z,18.33
2019-03-23T12:30:11.329Z,18.73
2019-03-23T12:33:12.042Z,18.43
2019-03-23T12:36:13.569Z,16.30
2019-03-23T12:39:14.908Z,16.80
2019-03-23T12:42:16.205Z,15.73
2019-03-23T12:45:16.997Z,16.10
2019-03-23T12:48:17.886Z,17.50
2019-03-23T12:51:18.605Z,16.73
2019-03-23T12:54:20.132Z,16.47
2019-03-23T12:57:21.700Z,16.60
2019-03-23T13:00:23.213Z,16.93
2019-03-23T13:03:23.928Z,18.90
2019-03-23T13:06:24.652Z,18.23
2019-03-23T13:09:13.837Z,17.27
2019-03-23T13:12:22.061Z,17.37
2019-03-23T13:15:22.914Z,18.00
2019-03-23T13:18:27.373Z,17.87
2019-03-23T13:21:14.576Z,17.70
2019-03-23T13:24:22.826Z,17.47
2019-03-23T13:27:24.325Z,17.13
2019-03-23T13:30:25.215Z,16.97
2019-03-23T13:33:25.719Z,15.77
2019-03-23T13:36:27.482Z,15.63
2019-03-23T13:39:34.824Z,15.97
2019-03-23T13:42:35.607Z,16.13
2019-03-23T13:45:42.582Z,18.37
2019-03-23T13:48:39.193Z,18.47
2019-03-23T13:51:40.162Z,17.13
2019-03-23T13:54:41.054Z,17.30
2019-03-23T13:57:41.818Z,17.73
2019-03-23T14:00:42.464Z,16.73
2019-03-23T14:03:43.221Z,18.63
2019-03-23T14:06:43.999Z,20.30
2019-03-23T14:09:44.756Z,18.60
2019-03-23T14:12:45.442Z,17.97
2019-03-23T14:15:46.102Z,17.33
2019-03-23T14:18:46.985Z,19.50
2019-03-23T14:21:47.840Z,18.17
2019-03-23T14:24:48.601Z,17.63
2019-03-23T14:27:50.178Z,16.73
2019-03-23T14:30:51.589Z,15.80
2019-03-23T14:33:52.330Z,15.43
2019-03-23T14:36:53.815Z,15.53
2019-03-23T14:39:55.340Z,16.10
2019-03-23T14:42:56.614Z,18.20
2019-03-23T14:45:57.734Z,17.60
2019-03-23T14:49:01.655Z,18.00
2019-03-23T14:52:01.951Z,19.23
2019-03-23T14:55:02.768Z,18.47
2019-03-23T14:58:04.458Z,18.23
2019-03-23T15:01:05.681Z,16.53
2019-03-23T15:04:07.164Z,15.23
2019-03-23T15:07:08.528Z,16.87
2019-03-23T15:10:09.918Z,16.57
2019-03-23T15:13:10.566Z,17.10
2019-03-23T15:16:11.633Z,17.63
2019-03-23T15:19:12.399Z,17.30
2019-03-23T15:22:13.839Z,16.37
2019-03-23T15:25:14.548Z,17.03
2019-03-23T15:28:15.936Z,18.37
2019-03-23T15:31:17.017Z,16.20
2019-03-23T15:34:17.910Z,17.03
2019-03-23T15:37:19.378Z,17.97
2019-03-23T15:40:20.006Z,16.60
2019-03-23T15:43:20.634Z,16.97
2019-03-23T15:46:21.446Z,27.67
2019-03-23T15:49:23.007Z,28.37
2019-03-23T15:52:23.838Z,27.10
2019-03-23T15:55:25.083Z,30.23
2019-03-23T15:58:26.597Z,29.50
2019-03-23T16:01:27.225Z,30.00
2019-03-23T16:04:28.517Z,31.77
2019-03-23T16:07:30.037Z,29.63
2019-03-23T16:10:31.712Z,29.02
2019-03-23T16:13:33.196Z,30.60
2019-03-23T16:16:34.658Z,30.00
2019-03-23T16:19:36.065Z,29.85
2019-03-23T16:22:37.365Z,30.10
2019-03-23T16:25:39.249Z,30.30
2019-03-23T16:28:28.719Z,29.82
2019-03-23T16:31:37.252Z,29.52
2019-03-23T16:34:38.219Z,30.15
2019-03-23T16:37:40.009Z,30.52
2019-03-23T16:40:48.774Z,31.68
2019-03-23T16:43:50.463Z,30.23
2019-03-23T16:46:52.338Z,29.92
2019-03-23T16:49:54.066Z,28.87
2019-03-23T16:52:55.897Z,30.48
2019-03-23T16:55:57.530Z,28.62
2019-03-23T16:58:59.348Z,29.65
2019-03-23T17:02:00.715Z,28.80
2019-03-23T17:05:02.378Z,29.57
2019-03-23T17:08:03.285Z,28.27
2019-03-23T17:11:05.241Z,28.23
2019-03-23T17:14:06.688Z,28.10
2019-03-23T17:17:07.943Z,27.73
2019-03-23T17:20:09.756Z,27.37
2019-03-23T17:23:11.486Z,27.02
2019-03-23T17:26:13.139Z,28.05
2019-03-23T17:29:14.293Z,28.20
2019-03-23T17:32:15.187Z,29.05
2019-03-23T17:35:16.815Z,34.45
2019-03-23T17:38:17.730Z,30.10
2019-03-23T17:41:18.239Z,27.17
2019-03-23T17:44:18.777Z,26.70
2019-03-23T17:47:19.520Z,28.12
2019-03-23T17:50:20.530Z,30.17
2019-03-23T17:53:21.431Z,28.07
2019-03-23T17:56:22.145Z,30.07
2019-03-23T17:59:22.887Z,30.07
2019-03-23T18:02:23.501Z,29.30
2019-03-23T18:05:24.233Z,26.37
2019-03-23T18:08:24.830Z,28.80
2019-03-23T18:11:26.426Z,30.88
2019-03-23T18:14:27.811Z,30.43
2019-03-23T18:17:28.522Z,28.30
2019-03-23T18:20:29.654Z,27.07
2019-03-23T18:23:30.459Z,27.67
2019-03-23T18:26:31.869Z,28.13
2019-03-23T18:29:32.693Z,28.43
2019-03-23T18:32:34.212Z,29.47
2019-03-23T18:35:34.851Z,31.13
2019-03-23T18:38:36.438Z,30.68
2019-03-23T18:41:37.687Z,30.17
2019-03-23T18:44:38.391Z,33.77
2019-03-23T18:47:39.231Z,31.07
2019-03-23T18:50:39.976Z,30.13
2019-03-23T18:53:40.797Z,29.27
2019-03-23T18:56:41.782Z,27.97
2019-03-23T18:59:43.077Z,28.30
2019-03-23T19:02:43.654Z,27.23
2019-03-23T19:05:44.622Z,26.47
2019-03-23T19:08:45.457Z,24.67
2019-03-23T19:11:47.014Z,24.00
2019-03-23T19:14:47.826Z,25.37
2019-03-23T19:17:48.662Z,27.30
2019-03-23T19:20:49.480Z,26.43
2019-03-23T19:23:50.587Z,26.63
2019-03-23T19:26:51.474Z,26.85
2019-03-23T19:29:52.106Z,26.33
2019-03-23T19:32:41.096Z,25.83
2019-03-23T19:35:49.499Z,25.43
2019-03-23T19:38:50.862Z,25.77
2019-03-23T19:41:51.891Z,25.20
2019-03-23T19:44:52.976Z,24.97
2019-03-23T19:47:53.639Z,25.00
2019-03-23T19:50:54.611Z,25.37
2019-03-23T19:53:56.144Z,25.33
2019-03-23T19:56:57.071Z,25.50
2019-03-23T19:59:58.022Z,25.63
2019-03-23T20:02:58.920Z,25.37
2019-03-23T20:06:00.541Z,25.50
2019-03-23T20:09:01.398Z,25.63
2019-03-23T20:12:02.081Z,28.07
2019-03-23T20:15:02.763Z,25.27
2019-03-23T20:18:03.668Z,26.73
2019-03-23T20:21:04.822Z,25.80
2019-03-23T20:24:05.934Z,25.77
2019-03-23T20:27:06.891Z,27.00
2019-03-23T20:30:07.451Z,26.07
2019-03-23T20:33:15.293Z,25.72
2019-03-23T20:36:10.471Z,23.87
2019-03-23T20:39:10.982Z,24.37
2019-03-23T20:42:11.345Z,23.30
2019-03-23T20:45:11.855Z,21.87
2019-03-23T20:48:12.498Z,21.47
2019-03-23T20:51:12.851Z,21.60
2019-03-23T20:54:13.793Z,22.23
2019-03-23T20:57:23.390Z,23.00
2019-03-23T21:00:16.813Z,23.17
2019-03-23T21:03:17.593Z,24.93
2019-03-23T21:06:18.690Z,23.23
2019-03-23T21:09:19.211Z,23.40
2019-03-23T21:12:19.822Z,23.90
2019-03-23T21:15:20.213Z,23.33
2019-03-23T21:18:20.821Z,22.00
2019-03-23T21:21:21.627Z,22.90
2019-03-23T21:24:22.118Z,21.43
2019-03-23T21:27:22.434Z,23.80
2019-03-23T21:30:22.787Z,21.77
2019-03-23T21:33:23.099Z,21.07
2019-03-23T21:36:24.304Z,20.97
2019-03-23T21:39:25.299Z,22.43
2019-03-23T21:42:25.707Z,24.83
2019-03-23T21:45:26.401Z,22.73
2019-03-23T21:48:26.798Z,23.40
2019-03-23T21:51:27.060Z,21.63
2019-03-23T21:54:27.726Z,22.33
2019-03-23T21:57:28.176Z,22.03
2019-03-23T22:00:28.967Z,23.77
2019-03-23T22:03:29.411Z,23.63
2019-03-23T22:06:30.259Z,21.87
2019-03-23T22:09:30.862Z,22.50
2019-03-23T22:12:31.215Z,22.90
2019-03-23T22:15:32.979Z,23.00
2019-03-23T22:18:33.882Z,21.90
2019-03-23T22:21:34.716Z,21.97
2019-03-23T22:24:35.423Z,24.23
2019-03-23T22:27:35.904Z,23.13
2019-03-23T22:30:36.544Z,21.63
2019-03-23T22:33:37.513Z,21.83
2019-03-23T22:36:38.162Z,22.30
2019-03-23T22:39:38.643Z,21.33
2019-03-23T22:42:39.074Z,22.30
2019-03-23T22:45:39.491Z,23.77
2019-03-23T22:48:40.077Z,24.17
2019-03-23T22:51:41.233Z,21.97
2019-03-23T22:54:41.990Z,22.30
2019-03-23T22:57:43.154Z,21.00
2019-03-23T23:00:45.167Z,24.70
2019-03-23T23:03:45.778Z,25.23
2019-03-23T23:06:46.805Z,24.77
2019-03-23T23:09:47.309Z,22.87
2019-03-23T23:12:48.024Z,23.13
2019-03-23T23:15:48.495Z,24.50
2019-03-23T23:18:49.128Z,22.30
2019-03-23T23:21:50.141Z,23.53
2019-03-23T23:24:51.416Z,22.50
2019-03-23T23:27:51.725Z,22.57
2019-03-23T23:30:52.461Z,22.10
2019-03-23T23:33:52.737Z,23.77
2019-03-23T23:36:53.399Z,23.47
2019-03-23T23:39:53.909Z,23.90
2019-03-23T23:42:54.506Z,24.37
2019-03-23T23:45:54.926Z,22.93
2019-03-23T23:48:55.580Z,24.50
2019-03-23T23:51:55.989Z,23.90
2019-03-23T23:54:56.310Z,24.00
2019-03-23T23:57:56.810Z,24.17
